createdAt,value
2023-03-13T00:01:39.726Z,17.45
2023-03-13T00:04:06.569Z,17.20
2023-03-13T00:06:35.710Z,19.02
2023-03-13T00:09:05.168Z,18.40
2023-03-13T00:11:32.509Z,10.18
2023-03-13T00:14:02.054Z,7.95
2023-03-13T00:16:29.731Z,15.32
2023-03-13T00:18:57.746Z,15.30
2023-03-13T00:21:27.328Z,16.50
2023-03-13T00:23:54.355Z,13.25
2023-03-13T00:26:23.222Z,17.67
2023-03-13T00:28:51.252Z,15.88
2023-03-13T00:31:20.473Z,19.98
2023-03-13T00:33:49.508Z,15.02
2023-03-13T00:36:17.554Z,10.82
2023-03-13T00:38:44.936Z,15.55
2023-03-13T00:41:19.783Z,18.48
2023-03-13T00:43:47.654Z,13.43
2023-03-13T00:46:16.717Z,26.92
2023-03-13T00:48:44.012Z,10.88
2023-03-13T00:51:10.956Z,10.40
2023-03-13T00:53:37.726Z,16.77
2023-03-13T00:56:10.377Z,20.27
2023-03-13T00:58:39.458Z,18.90
2023-03-13T01:01:08.547Z,13.68
2023-03-13T01:03:35.925Z,13.13
2023-03-13T01:06:04.965Z,14.63
2023-03-13T01:08:31.575Z,14.98
2023-03-13T01:11:03.842Z,19.50
2023-03-13T01:13:32.828Z,11.40
2023-03-13T01:16:11.810Z,20.25
2023-03-13T01:18:41.796Z,19.40
2023-03-13T01:21:08.475Z,14.57
2023-03-13T01:23:35.773Z,19.40
2023-03-13T01:26:05.192Z,23.05
2023-03-13T01:28:32.056Z,19.70
2023-03-13T01:30:59.954Z,15.60
2023-03-13T01:33:26.615Z,13.43
2023-03-13T01:35:53.261Z,11.20
2023-03-13T01:38:19.738Z,15.68
2023-03-13T01:40:49.663Z,8.73
2023-03-13T01:43:28.476Z,19.60
2023-03-13T01:46:18.273Z,21.20
2023-03-13T01:49:15.915Z,18.35
2023-03-13T01:51:48.175Z,12.57
2023-03-13T01:54:21.294Z,12.73
2023-03-13T01:57:00.319Z,11.20
2023-03-13T01:59:30.849Z,13.52
2023-03-13T02:02:00.372Z,14.60
2023-03-13T02:04:31.702Z,15.25
2023-03-13T02:07:02.959Z,19.48
2023-03-13T02:09:32.327Z,17.05
2023-03-13T02:12:07.402Z,12.20
2023-03-13T02:17:03.802Z,11.13
2023-03-13T02:19:34.552Z,19.40
2023-03-13T02:22:00.885Z,18.98
2023-03-13T02:24:37.793Z,23.27
2023-03-13T02:27:04.300Z,8.10
2023-03-13T02:29:31.172Z,18.38
2023-03-13T02:31:58.012Z,12.07
2023-03-13T02:34:30.292Z,12.13
2023-03-13T02:36:58.583Z,11.35
2023-03-13T02:39:27.026Z,22.77
2023-03-13T02:41:54.298Z,9.20
2023-03-13T02:44:21.119Z,13.65
2023-03-13T02:46:50.347Z,14.63
2023-03-13T02:49:22.987Z,9.25
2023-03-13T02:51:49.940Z,7.55
2023-03-13T02:54:38.102Z,12.23
2023-03-13T02:57:06.115Z,6.32
2023-03-13T02:59:34.550Z,8.40
2023-03-13T03:02:01.113Z,7.40
2023-03-13T03:04:28.094Z,11.68
2023-03-13T03:06:54.863Z,11.93
2023-03-13T03:09:22.568Z,7.07
2023-03-13T03:11:49.299Z,6.15
2023-03-13T03:14:16.837Z,9.98
2023-03-13T03:16:43.859Z,9.52
2023-03-13T03:19:11.245Z,6.53
2023-03-13T03:21:38.204Z,9.60
2023-03-13T03:24:05.033Z,8.32
2023-03-13T03:26:31.512Z,7.03
2023-03-13T03:28:58.154Z,2.72
2023-03-13T03:31:25.040Z,7.97
2023-03-13T03:33:51.758Z,3.08
2023-03-13T03:36:20.638Z,10.95
2023-03-13T03:38:47.912Z,6.18
2023-03-13T03:41:15.293Z,3.35
2023-03-13T03:43:42.626Z,4.00
2023-03-13T03:46:09.710Z,3.42
2023-03-13T03:48:38.173Z,8.55
2023-03-13T03:51:05.388Z,3.85
2023-03-13T03:53:32.449Z,5.47
2023-03-13T03:55:59.652Z,3.47
2023-03-13T03:58:26.477Z,2.67
2023-03-13T04:00:52.939Z,6.65
2023-03-13T04:03:20.072Z,2.58
2023-03-13T04:05:46.580Z,5.95
2023-03-13T04:08:13.590Z,8.93
2023-03-13T04:10:40.022Z,5.93
2023-03-13T04:13:06.907Z,4.82
2023-03-13T04:15:33.643Z,4.50
2023-03-13T04:18:01.232Z,1.77
2023-03-13T04:20:28.782Z,3.08
2023-03-13T04:22:55.457Z,3.92
2023-03-13T04:25:21.874Z,6.70
2023-03-13T04:27:48.383Z,5.07
2023-03-13T04:30:17.563Z,2.80
2023-03-13T04:32:45.282Z,2.78
2023-03-13T04:35:11.962Z,4.78
2023-03-13T04:37:38.795Z,3.13
2023-03-13T04:40:07.054Z,3.13
2023-03-13T04:42:33.785Z,2.72
2023-03-13T04:45:00.662Z,1.30
2023-03-13T04:47:27.064Z,3.03
2023-03-13T04:49:53.649Z,1.05
2023-03-13T04:52:20.081Z,2.03
2023-03-13T04:54:46.609Z,2.10
2023-03-13T04:57:13.035Z,2.58
2023-03-13T04:59:39.620Z,1.00
2023-03-13T05:02:06.093Z,1.15
2023-03-13T05:04:32.676Z,1.20
2023-03-13T05:06:59.488Z,0.63
2023-03-13T05:09:25.935Z,0.88
2023-03-13T05:11:53.501Z,0.85
2023-03-13T05:14:19.963Z,3.08
2023-03-13T05:16:46.475Z,0.93
2023-03-13T05:19:12.856Z,1.33
2023-03-13T05:21:39.706Z,0.82
2023-03-13T05:24:06.322Z,1.90
2023-03-13T05:26:32.880Z,1.30
2023-03-13T05:28:59.805Z,1.10
2023-03-13T05:31:27.468Z,1.65
2023-03-13T05:33:53.875Z,1.05
2023-03-13T05:36:20.404Z,1.30
2023-03-13T05:38:46.834Z,0.77
2023-03-13T05:41:13.404Z,3.35
2023-03-13T05:43:40.237Z,1.45
2023-03-13T05:46:06.723Z,0.63
2023-03-13T05:48:33.178Z,1.33
2023-03-13T05:50:59.617Z,1.17
2023-03-13T05:53:26.395Z,0.85
2023-03-13T05:55:52.794Z,0.60
2023-03-13T05:58:19.292Z,0.50
2023-03-13T06:00:45.685Z,0.60
2023-03-13T06:03:14.303Z,0.93
2023-03-13T06:05:40.927Z,1.38
2023-03-13T06:08:07.496Z,0.77
2023-03-13T06:10:34.234Z,1.65
2023-03-13T06:13:13.736Z,1.20
2023-03-13T06:15:53.043Z,0.70
2023-03-13T06:18:19.732Z,1.70
2023-03-13T06:20:46.892Z,0.98
2023-03-13T06:23:13.323Z,0.88
2023-03-13T06:25:40.283Z,0.80
2023-03-13T06:28:07.212Z,1.20
2023-03-13T06:30:33.800Z,2.13
2023-03-13T06:33:00.420Z,1.17
2023-03-13T06:35:26.892Z,0.68
2023-03-13T06:37:54.546Z,1.88
2023-03-13T06:40:20.982Z,1.27
2023-03-13T06:42:47.842Z,1.70
2023-03-13T06:45:14.430Z,0.85
2023-03-13T06:47:42.081Z,0.93
2023-03-13T06:50:09.319Z,1.15
2023-03-13T06:52:43.962Z,1.08
2023-03-13T06:55:16.705Z,1.48
2023-03-13T06:57:44.665Z,1.13
2023-03-13T07:00:11.629Z,0.95
2023-03-13T07:02:38.396Z,0.93
2023-03-13T07:05:05.858Z,1.92
2023-03-13T07:07:33.522Z,0.93
2023-03-13T07:10:01.246Z,2.13
2023-03-13T07:12:27.945Z,1.33
2023-03-13T07:14:54.396Z,1.65
2023-03-13T07:17:21.031Z,2.60
2023-03-13T07:19:47.541Z,0.82
2023-03-13T07:22:14.966Z,2.45
2023-03-13T07:24:41.814Z,1.95
2023-03-13T07:27:08.571Z,1.85
2023-03-13T07:29:35.393Z,5.75
2023-03-13T07:32:02.065Z,2.63
2023-03-13T07:34:28.608Z,3.40
2023-03-13T07:36:58.063Z,4.57
2023-03-13T07:39:24.781Z,2.83
2023-03-13T07:41:51.326Z,5.63
2023-03-13T07:44:18.211Z,4.07
2023-03-13T07:46:44.739Z,2.67
2023-03-13T07:49:11.132Z,3.97
2023-03-13T07:51:43.971Z,4.85
2023-03-13T07:54:11.940Z,7.53
2023-03-13T07:56:39.421Z,4.03
2023-03-13T07:59:07.262Z,5.30
2023-03-13T08:01:35.024Z,4.68
2023-03-13T08:04:02.072Z,7.78
2023-03-13T08:06:33.906Z,4.28
2023-03-13T08:09:00.798Z,2.80
2023-03-13T08:11:28.371Z,3.65
2023-03-13T08:13:56.591Z,5.40
2023-03-13T08:16:26.946Z,8.15
2023-03-13T08:18:56.393Z,3.45
2023-03-13T08:21:29.212Z,4.25
2023-03-13T08:23:58.095Z,5.30
2023-03-13T08:26:27.337Z,3.60
2023-03-13T08:29:02.156Z,5.32
2023-03-13T08:31:34.508Z,5.25
2023-03-13T08:34:03.068Z,5.82
2023-03-13T08:36:32.984Z,4.10
2023-03-13T08:39:02.028Z,6.38
2023-03-13T08:41:32.274Z,5.22
2023-03-13T08:44:01.384Z,6.05
2023-03-13T08:46:30.835Z,5.80
2023-03-13T08:48:57.849Z,7.60
2023-03-13T08:51:26.624Z,4.32
2023-03-13T08:53:53.661Z,8.02
2023-03-13T08:56:22.510Z,3.40
2023-03-13T08:58:54.038Z,5.15
2023-03-13T09:01:23.278Z,6.30
2023-03-13T09:03:50.277Z,7.15
2023-03-13T09:06:17.073Z,3.70
2023-03-13T09:08:44.567Z,7.22
2023-03-13T09:11:17.053Z,4.88
2023-03-13T09:13:46.299Z,5.63
2023-03-13T09:16:18.281Z,6.10
2023-03-13T09:18:45.526Z,5.75
2023-03-13T09:21:14.967Z,5.60
2023-03-13T09:23:41.562Z,4.32
2023-03-13T09:26:08.340Z,6.00
2023-03-13T09:28:35.443Z,5.35
2023-03-13T09:31:14.602Z,3.88
2023-03-13T09:33:42.402Z,4.45
2023-03-13T09:36:10.361Z,5.05
2023-03-13T09:38:38.415Z,4.45
2023-03-13T09:41:26.752Z,3.80
2023-03-13T09:43:59.693Z,4.00
2023-03-13T09:46:33.043Z,2.33
2023-03-13T09:49:26.236Z,4.88
2023-03-13T09:51:59.691Z,3.35
2023-03-13T09:54:33.681Z,3.30
2023-03-13T09:57:07.600Z,3.80
2023-03-13T09:59:40.291Z,2.42
2023-03-13T10:02:21.790Z,3.72
2023-03-13T10:04:55.971Z,2.97
2023-03-13T10:07:22.737Z,2.77
2023-03-13T10:09:49.405Z,5.70
2023-03-13T10:12:23.180Z,2.25
2023-03-13T10:14:57.381Z,2.95
2023-03-13T10:17:32.998Z,2.73
2023-03-13T10:20:23.090Z,2.33
2023-03-13T10:22:56.372Z,2.17
2023-03-13T10:25:31.906Z,3.25
2023-03-13T10:27:59.391Z,3.60
2023-03-13T10:30:29.319Z,6.07
2023-03-13T10:33:01.889Z,2.00
2023-03-13T10:35:34.294Z,3.30
2023-03-13T10:38:10.865Z,2.53
2023-03-13T10:40:37.957Z,2.05
2023-03-13T10:43:05.944Z,2.20
2023-03-13T10:45:35.821Z,3.95
2023-03-13T10:48:11.027Z,2.22
2023-03-13T10:50:41.214Z,2.53
2023-03-13T10:53:20.088Z,2.50
2023-03-13T10:55:47.182Z,1.55
2023-03-13T10:58:34.152Z,2.10
2023-03-13T11:01:16.719Z,2.95
2023-03-13T11:03:45.578Z,3.53
2023-03-13T11:06:38.605Z,2.15
2023-03-13T11:09:16.447Z,5.63
2023-03-13T11:12:03.892Z,2.50
2023-03-13T11:14:30.397Z,4.75
2023-03-13T11:17:24.073Z,2.67
2023-03-13T11:20:09.442Z,3.15
2023-03-13T11:22:55.356Z,3.70
2023-03-13T11:25:30.325Z,2.92
2023-03-13T11:28:34.114Z,5.10
2023-03-13T11:31:13.434Z,6.85
2023-03-13T11:33:57.567Z,3.97
2023-03-13T11:36:30.002Z,7.10
2023-03-13T11:39:28.799Z,5.53
2023-03-13T11:42:02.713Z,3.47
2023-03-13T11:44:45.034Z,5.40
2023-03-13T11:47:26.882Z,3.00
2023-03-13T11:50:10.873Z,6.32
2023-03-13T11:52:46.516Z,4.00
2023-03-13T11:55:25.563Z,5.45
2023-03-13T11:58:23.424Z,3.53
2023-03-13T12:01:00.332Z,3.97
2023-03-13T12:03:37.257Z,6.65
2023-03-13T12:06:15.874Z,4.35
2023-03-13T12:08:55.635Z,26.87
2023-03-13T12:11:37.430Z,10.65
2023-03-13T12:14:16.153Z,7.78
2023-03-13T12:16:49.075Z,3.38
2023-03-13T12:19:22.563Z,3.88
2023-03-13T12:21:53.323Z,2.83
2023-03-13T12:24:23.237Z,4.13
2023-03-13T12:27:03.032Z,6.32
2023-03-13T12:29:39.849Z,2.97
2023-03-13T12:32:19.992Z,2.00
2023-03-13T12:34:59.521Z,3.83
2023-03-13T12:37:49.370Z,3.53
2023-03-13T12:40:33.090Z,2.38
2023-03-13T12:43:10.511Z,4.32
2023-03-13T12:45:46.381Z,3.03
2023-03-13T12:48:12.819Z,2.38
2023-03-13T12:50:58.198Z,4.70
2023-03-13T12:53:38.106Z,2.28
2023-03-13T12:56:33.590Z,3.83
2023-03-13T12:59:15.142Z,2.97
2023-03-13T13:01:50.409Z,5.05
2023-03-13T13:04:21.741Z,5.30
2023-03-13T13:06:57.603Z,4.05
2023-03-13T13:09:27.541Z,2.53
2023-03-13T13:11:55.874Z,3.22
2023-03-13T13:14:42.303Z,5.65
2023-03-13T13:17:21.583Z,4.25
2023-03-13T13:19:48.309Z,4.13
2023-03-13T13:22:38.148Z,4.25
2023-03-13T13:25:04.836Z,3.20
2023-03-13T13:27:46.580Z,4.65
2023-03-13T13:30:19.065Z,4.22
2023-03-13T13:32:49.696Z,4.15
2023-03-13T13:35:35.713Z,3.85
2023-03-13T13:38:18.063Z,3.78
2023-03-13T13:41:03.586Z,3.92
2023-03-13T13:46:24.965Z,3.08
2023-03-13T13:49:16.873Z,3.45
2023-03-13T13:52:06.660Z,3.10
2023-03-13T13:54:42.220Z,5.18
2023-03-13T13:57:23.848Z,3.45
2023-03-13T13:59:53.379Z,5.18
2023-03-13T14:02:44.962Z,3.25
2023-03-13T14:05:32.394Z,3.05
2023-03-13T14:08:04.740Z,2.25
2023-03-13T14:10:45.680Z,5.32
2023-03-13T14:13:17.708Z,2.95
2023-03-13T14:15:47.013Z,2.50
2023-03-13T14:18:20.855Z,1.02
2023-03-13T14:20:50.137Z,1.10
2023-03-13T14:23:42.765Z,1.25
2023-03-13T14:26:10.784Z,0.77
2023-03-13T14:28:42.247Z,0.98
2023-03-13T14:31:12.663Z,1.00
2023-03-13T14:33:39.324Z,0.60
2023-03-13T14:36:06.557Z,1.30
2023-03-13T14:38:33.519Z,1.20
2023-03-13T14:41:00.016Z,0.95
2023-03-13T14:43:38.158Z,0.50
2023-03-13T14:46:31.063Z,0.90
2023-03-13T14:49:06.801Z,0.60
2023-03-13T14:51:37.998Z,0.80
2023-03-13T14:54:04.894Z,0.68
2023-03-13T14:56:37.120Z,2.00
2023-03-13T14:59:13.763Z,0.70
2023-03-13T15:01:40.686Z,0.70
2023-03-13T15:04:07.161Z,0.90
2023-03-13T15:06:33.948Z,0.85
2023-03-13T15:09:22.159Z,1.17
2023-03-13T15:11:56.768Z,1.00
2023-03-13T15:14:43.524Z,1.85
2023-03-13T15:17:30.374Z,1.50
2023-03-13T15:19:59.190Z,2.08
2023-03-13T15:22:31.548Z,1.10
2023-03-13T15:25:07.401Z,2.35
2023-03-13T15:27:34.483Z,3.28
2023-03-13T15:30:00.912Z,1.83
2023-03-13T15:32:30.392Z,1.10
2023-03-13T15:35:02.171Z,1.35
2023-03-13T15:37:30.296Z,0.93
2023-03-13T15:39:57.670Z,2.00
2023-03-13T15:42:25.497Z,0.90
2023-03-13T15:44:52.148Z,1.58
2023-03-13T15:47:22.403Z,1.88
2023-03-13T15:49:48.895Z,1.00
2023-03-13T15:52:19.409Z,1.00
2023-03-13T15:54:46.891Z,1.10
2023-03-13T15:57:16.244Z,1.50
2023-03-13T15:59:44.191Z,1.40
2023-03-13T16:02:23.148Z,2.60
2023-03-13T16:04:50.307Z,0.80
2023-03-13T16:07:22.844Z,2.13
2023-03-13T16:09:49.694Z,1.15
2023-03-13T16:12:16.158Z,1.23
2023-03-13T16:14:42.697Z,1.35
2023-03-13T16:17:28.239Z,1.15
2023-03-13T16:22:21.955Z,3.88
2023-03-13T16:24:48.350Z,2.40
2023-03-13T16:27:19.749Z,2.05
2023-03-13T16:29:46.718Z,2.20
2023-03-13T16:32:16.329Z,1.67
2023-03-13T16:34:43.183Z,5.18
2023-03-13T16:37:16.105Z,1.85
2023-03-13T16:39:44.334Z,1.02
2023-03-13T16:42:11.668Z,2.55
2023-03-13T16:44:39.146Z,1.15
2023-03-13T16:47:19.326Z,2.25
2023-03-13T16:49:47.560Z,2.83
2023-03-13T16:52:16.026Z,1.92
2023-03-13T16:54:42.849Z,2.40
2023-03-13T16:57:14.185Z,1.08
2023-03-13T16:59:41.338Z,3.42
2023-03-13T17:02:18.863Z,4.65
2023-03-13T17:04:46.985Z,2.05
2023-03-13T17:07:23.092Z,1.60
2023-03-13T17:09:51.236Z,1.80
2023-03-13T17:12:19.294Z,2.38
2023-03-13T17:14:46.401Z,3.95
2023-03-13T17:17:19.626Z,4.63
2023-03-13T17:19:46.541Z,3.45
2023-03-13T17:22:15.242Z,4.38
2023-03-13T17:24:42.544Z,4.60
2023-03-13T17:27:18.368Z,6.63
2023-03-13T17:29:44.844Z,10.10
2023-03-13T17:32:12.414Z,3.72
2023-03-13T17:34:40.207Z,2.15
2023-03-13T17:37:18.186Z,0.93
2023-03-13T17:39:44.896Z,3.50
2023-03-13T17:42:12.553Z,2.38
2023-03-13T17:44:39.672Z,2.88
2023-03-13T17:47:24.544Z,2.15
2023-03-13T17:49:50.987Z,2.65
2023-03-13T17:52:18.234Z,1.52
2023-03-13T17:54:45.509Z,4.00
2023-03-13T17:57:18.603Z,1.95
2023-03-13T17:59:46.866Z,3.10
2023-03-13T18:02:14.883Z,3.10
2023-03-13T18:04:43.202Z,2.95
2023-03-13T18:07:21.447Z,5.03
2023-03-13T18:09:48.132Z,4.38
2023-03-13T18:12:15.088Z,2.65
2023-03-13T18:14:41.941Z,61.05
2023-03-13T18:17:20.853Z,5.70
2023-03-13T18:19:49.592Z,4.30
2023-03-13T18:22:19.461Z,3.33
2023-03-13T18:24:46.124Z,4.18
2023-03-13T18:27:18.874Z,4.25
2023-03-13T18:29:47.418Z,7.50
2023-03-13T18:32:15.600Z,2.92
2023-03-13T18:34:42.650Z,3.58
2023-03-13T18:37:20.975Z,3.22
2023-03-13T18:39:50.357Z,3.40
2023-03-13T18:42:17.902Z,1.63
2023-03-13T18:44:44.335Z,2.25
2023-03-13T18:47:17.115Z,1.13
2023-03-13T18:49:44.089Z,1.15
2023-03-13T18:52:11.851Z,3.17
2023-03-13T18:54:38.838Z,2.35
2023-03-13T18:57:17.886Z,1.17
2023-03-13T18:59:44.867Z,1.80
2023-03-13T19:02:14.719Z,1.92
2023-03-13T19:04:41.943Z,1.60
2023-03-13T19:07:20.007Z,2.20
2023-03-13T19:09:47.393Z,2.97
2023-03-13T19:12:15.413Z,3.58
2023-03-13T19:14:42.240Z,0.82
2023-03-13T19:17:29.546Z,1.77
2023-03-13T19:19:59.024Z,3.08
2023-03-13T19:22:26.573Z,2.05
2023-03-13T19:24:53.179Z,1.42
2023-03-13T19:27:19.652Z,3.75
2023-03-13T19:29:46.774Z,3.05
2023-03-13T19:32:18.750Z,3.42
2023-03-13T19:34:45.504Z,2.85
2023-03-13T19:37:14.617Z,4.47
2023-03-13T19:39:42.491Z,3.42
2023-03-13T19:42:09.033Z,1.88
2023-03-13T19:44:36.825Z,2.58
2023-03-13T19:47:06.471Z,2.65
2023-03-13T19:49:33.659Z,2.38
2023-03-13T19:52:00.382Z,3.55
2023-03-13T19:54:27.019Z,7.05
2023-03-13T19:56:53.690Z,4.85
2023-03-13T19:59:26.579Z,5.32
2023-03-13T20:01:55.596Z,6.57
2023-03-13T20:04:22.176Z,11.70
2023-03-13T20:06:48.758Z,7.32
2023-03-13T20:09:18.777Z,6.88
2023-03-13T20:11:45.218Z,2.65
2023-03-13T20:14:12.425Z,5.32
2023-03-13T20:16:39.195Z,2.33
2023-03-13T20:19:06.216Z,3.08
2023-03-13T20:21:37.306Z,1.75
2023-03-13T20:24:04.173Z,5.65
2023-03-13T20:26:31.303Z,1.90
2023-03-13T20:28:58.220Z,2.45
2023-03-13T20:31:30.454Z,6.25
2023-03-13T20:33:57.467Z,6.35
2023-03-13T20:36:25.079Z,4.43
2023-03-13T20:38:51.605Z,7.00
2023-03-13T20:41:24.327Z,2.03
2023-03-13T20:43:52.163Z,4.85
2023-03-13T20:46:20.516Z,3.90
2023-03-13T20:48:47.042Z,2.47
2023-03-13T20:51:14.128Z,4.03
2023-03-13T20:53:42.260Z,4.68
2023-03-13T20:56:10.663Z,6.80
2023-03-13T20:58:37.924Z,2.95
2023-03-13T21:01:06.140Z,7.68
2023-03-13T21:03:35.296Z,3.45
2023-03-13T21:06:09.674Z,6.47
2023-03-13T21:08:38.817Z,3.33
2023-03-13T21:11:13.363Z,2.90
2023-03-13T21:13:40.594Z,3.97
2023-03-13T21:16:07.484Z,2.47
2023-03-13T21:18:34.258Z,3.03
2023-03-13T21:21:14.921Z,5.82
2023-03-13T21:23:41.500Z,1.83
2023-03-13T21:26:08.184Z,2.83
2023-03-13T21:28:34.995Z,4.20
2023-03-13T21:31:16.512Z,2.33
2023-03-13T21:33:44.626Z,4.53
2023-03-13T21:36:14.149Z,3.03
2023-03-13T21:38:40.867Z,2.53
2023-03-13T21:41:12.513Z,2.88
2023-03-13T21:43:41.568Z,2.38
2023-03-13T21:46:13.774Z,5.97
2023-03-13T21:48:42.145Z,4.13
2023-03-13T21:51:10.597Z,8.07
2023-03-13T21:53:38.115Z,4.65
2023-03-13T21:56:05.255Z,3.50
2023-03-13T21:58:31.687Z,5.63
2023-03-13T22:00:58.822Z,4.32
2023-03-13T22:03:29.186Z,2.85
2023-03-13T22:05:55.847Z,4.20
2023-03-13T22:08:22.373Z,4.82
2023-03-13T22:10:50.594Z,2.83
2023-03-13T22:13:17.565Z,1.80
2023-03-13T22:15:46.237Z,6.57
2023-03-13T22:18:17.467Z,3.05
2023-03-13T22:20:44.662Z,3.03
2023-03-13T22:23:12.837Z,2.25
2023-03-13T22:25:42.247Z,2.97
2023-03-13T22:28:10.418Z,3.70
2023-03-13T22:30:39.985Z,1.88
2023-03-13T22:33:07.766Z,4.15
2023-03-13T22:35:35.627Z,4.35
2023-03-13T22:38:02.541Z,3.97
2023-03-13T22:40:29.173Z,2.45
2023-03-13T22:42:55.665Z,3.67
2023-03-13T22:45:22.431Z,2.90
2023-03-13T22:47:49.948Z,4.40
2023-03-13T22:50:17.578Z,3.13
2023-03-13T22:52:44.484Z,2.83
2023-03-13T22:55:11.011Z,4.07
2023-03-13T22:57:37.600Z,2.38
2023-03-13T23:00:06.162Z,3.70
2023-03-13T23:02:32.630Z,4.38
2023-03-13T23:05:01.411Z,3.50
2023-03-13T23:07:29.627Z,7.03
2023-03-13T23:09:57.430Z,3.35
2023-03-13T23:12:25.218Z,3.33
2023-03-13T23:14:52.643Z,4.05
2023-03-13T23:17:19.265Z,4.32
2023-03-13T23:19:45.882Z,2.67
2023-03-13T23:22:18.103Z,4.32
2023-03-13T23:24:45.053Z,5.22
2023-03-13T23:27:11.828Z,3.67
2023-03-13T23:29:38.691Z,3.33
2023-03-13T23:32:05.599Z,1.90
2023-03-13T23:34:32.601Z,5.70
2023-03-13T23:36:59.017Z,3.20
2023-03-13T23:39:25.668Z,6.97
2023-03-13T23:41:52.076Z,2.30
2023-03-13T23:44:18.546Z,4.80
2023-03-13T23:46:45.449Z,3.50
2023-03-13T23:49:13.123Z,4.35
2023-03-13T23:51:39.860Z,3.25
2023-03-13T23:54:07.007Z,4.88
2023-03-13T23:56:33.989Z,3.45
2023-03-13T23:59:00.590Z,6.82
